Time;durP1;ratioP1;P1;durP2;ratioP2;P2;SDS_P1;SDS_P2;PMS_P1;PMS_P2;Temp;Humidity;BMP_temperature;BMP_pressure;BME280_temperature;BME280_humidity;BME280_pressure;Samples;Min_cycle;Max_cycle;Signal;HPM_P1;HPM_P2
2022/10/07 00:00:42;;;;;;;5.97;2.70;;;17.30;90.00;;;17.71;55.26;99837.59;4967176;28;124089;-72
2022/10/07 00:03:09;;;;;;;6.10;2.70;;;17.30;90.00;;;17.65;55.31;99828.56;4981270;28;122065;-73
2022/10/07 00:05:35;;;;;;;5.10;2.67;;;17.20;90.00;;;17.62;55.50;99832.03;4967588;28;121309;-72
2022/10/07 00:08:02;;;;;;;3.80;2.30;;;17.20;90.10;;;17.59;55.50;99832.69;4970197;28;119000;-72
2022/10/07 00:10:28;;;;;;;4.37;2.90;;;17.10;90.10;;;17.57;55.47;99823.84;4968311;28;124020;-73
2022/10/07 00:12:55;;;;;;;4.70;2.20;;;17.10;90.10;;;17.55;55.64;99828.94;4967036;28;123838;-72
2022/10/07 00:15:22;;;;;;;4.57;2.97;;;17.20;90.30;;;17.54;55.85;99824.47;4984740;28;118750;-72
2022/10/07 00:17:48;;;;;;;6.03;2.67;;;17.10;90.20;;;17.53;55.54;99817.25;4974471;28;119235;-73
2022/10/07 00:20:15;;;;;;;9.20;2.83;;;17.10;90.30;;;17.53;55.90;99822.03;4978191;28;124079;-72
2022/10/07 00:22:42;;;;;;;4.67;2.13;;;17.00;90.30;;;17.52;55.86;99826.81;4966366;28;124163;-73
2022/10/07 00:25:09;;;;;;;2.73;2.43;;;17.10;90.40;;;17.53;55.70;99825.66;4967692;28;120492;-73
2022/10/07 00:27:36;;;;;;;6.13;2.57;;;18.30;90.90;;;17.53;55.77;99822.03;4984617;28;120348;-74
2022/10/07 00:30:03;;;;;;;5.97;2.97;;;17.10;90.40;;;17.52;55.84;99815.63;4984904;28;124665;-74
2022/10/07 00:32:29;;;;;;;7.30;3.60;;;17.10;90.50;;;17.52;56.06;99821.22;4985129;28;122725;-73
2022/10/07 00:34:55;;;;;;;6.77;2.73;;;17.00;90.50;;;17.53;55.91;99810.88;4981332;28;121211;-72
2022/10/07 00:37:22;;;;;;;5.40;2.60;;;17.10;90.50;;;17.52;55.95;99810.03;4983910;28;118917;-73
2022/10/07 00:39:49;;;;;;;6.33;3.10;;;17.10;90.60;;;17.53;56.08;99808.06;4985891;28;124068;-74
2022/10/07 00:42:16;;;;;;;4.53;2.73;;;17.00;90.50;;;17.52;56.07;99803.66;4985176;28;124330;-73
2022/10/07 00:44:45;;;;;;;3.93;2.40;;;17.00;90.50;;;17.51;56.00;99796.41;4986208;28;119886;-73
2022/10/07 00:47:33;;;;;;;5.33;2.90;;;17.00;90.60;;;17.50;55.99;99790.00;4975490;28;118828;-73
2022/10/07 00:50:23;;;;;;;11.30;3.10;;;17.00;90.60;;;17.47;56.02;99785.09;4985105;28;125009;-73
2022/10/07 00:52:56;;;;;;;7.10;2.73;;;17.00;90.60;;;17.44;55.99;99788.53;4978785;28;123895;-75
2022/10/07 00:55:25;;;;;;;3.47;2.33;;;17.00;90.70;;;17.43;56.17;99787.72;4985815;28;119616;-72
2022/10/07 00:57:56;;;;;;;3.10;2.53;;;17.00;90.70;;;17.43;55.98;99787.72;4982832;28;119008;-74
2022/10/07 01:00:23;;;;;;;6.40;2.73;;;17.00;90.70;;;17.43;56.11;99775.72;4987472;28;124016;-74
2022/10/07 01:02:50;;;;;;;9.07;2.97;;;17.00;90.70;;;17.42;56.12;99769.31;4978520;28;124044;-72
2022/10/07 01:05:18;;;;;;;5.93;2.50;;;16.90;90.60;;;17.42;56.10;99771.28;4973760;28;118229;-73
2022/10/07 01:07:46;;;;;;;5.17;3.17;;;17.00;90.70;;;17.39;55.89;99781.16;4983752;28;118933;-72
2022/10/07 01:10:17;;;;;;;6.17;3.67;;;16.90;90.60;;;17.35;55.86;99768.19;4976845;28;123323;-73
2022/10/07 01:13:04;;;;;;;4.43;2.37;;;16.90;90.60;;;17.30;55.81;99773.94;4969430;28;124488;-73
2022/10/07 01:15:58;;;;;;;5.80;2.80;;;16.80;90.60;;;17.27;55.97;99769.03;4963045;28;119358;-75
2022/10/07 01:18:35;;;;;;;4.27;2.43;;;16.80;90.60;;;17.28;55.82;99765.91;4978303;28;119413;-73
2022/10/07 01:21:09;;;;;;;3.97;2.13;;;16.80;90.60;;;17.30;55.65;99765.56;4978160;28;123977;-73
2022/10/07 01:24:03;;;;;;;7.33;2.07;;;16.80;90.50;;;17.32;55.51;99758.50;4983983;28;123575;-74
2022/10/07 01:27:05;;;;;;;4.43;2.60;;;16.80;90.50;;;17.31;55.60;99767.22;4977685;28;119519;-73
2022/10/07 01:29:41;;;;;;;3.13;2.30;;;16.80;90.40;;;17.33;55.57;99756.53;4978293;28;118351;-73
2022/10/07 01:32:20;;;;;;;5.03;2.40;;;16.80;90.40;;;17.32;55.34;99755.72;4960480;28;122965;-72
2022/10/07 01:34:50;;;;;;;4.77;2.30;;;16.80;90.30;;;17.30;54.99;99757.19;4977958;28;123826;-73
2022/10/07 01:37:18;;;;;;;5.73;2.37;;;16.80;90.20;;;17.29;54.94;99744.38;4985400;28;119342;-73
2022/10/07 01:39:50;;;;;;;3.50;2.13;;;16.90;90.20;;;17.28;55.02;99751.97;4980217;28;118649;-73
2022/10/07 01:42:19;;;;;;;6.07;2.67;;;16.80;90.00;;;17.26;54.85;99750.66;4972675;28;123953;-72
2022/10/07 01:44:52;;;;;;;4.63;2.57;;;16.80;90.00;;;17.25;54.88;99738.66;4982668;28;123474;-73
2022/10/07 01:47:18;;;;;;;3.93;2.70;;;16.80;90.00;;;17.23;54.88;99741.78;4968922;28;119302;-73
2022/10/07 01:49:45;;;;;;;6.67;3.33;;;15.10;88.40;;;17.22;54.83;99742.09;4979942;28;119911;-73
2022/10/07 01:52:50;;;;;;;9.60;2.67;;;16.80;90.00;;;17.18;54.83;99732.75;4984698;28;124181;-73
2022/10/07 01:55:56;;;;;;;7.23;2.77;;;16.80;90.00;;;17.14;54.84;99731.78;4976666;28;124126;-74
2022/10/07 01:58:35;;;;;;;10.23;2.90;;;16.70;90.00;;;17.14;55.16;99731.78;4978217;28;119015;-73
2022/10/07 02:01:18;;;;;;;5.43;2.73;;;16.70;90.00;;;17.13;55.03;99714.22;4974273;28;119486;-73
2022/10/07 02:04:36;;;;;;;3.60;2.50;;;16.70;90.10;;;17.13;55.17;99724.56;4979018;28;124028;-73
2022/10/07 02:07:12;;;;;;;4.87;2.43;;;16.70;90.10;;;17.11;55.24;99716.50;4963884;28;123458;-73
2022/10/07 02:09:58;;;;;;;3.30;2.20;;;16.70;90.10;;;17.10;55.17;99726.06;4982934;28;120149;-73
2022/10/07 02:12:38;;;;;;;4.80;2.63;;;16.70;90.20;;;17.09;55.35;99713.25;4986304;28;120126;-73
2022/10/07 02:15:25;;;;;;;3.03;2.40;;;16.60;90.10;;;17.09;55.29;99712.44;4977093;28;123962;-74
2022/10/07 02:17:56;;;;;;;5.00;2.53;;;16.60;90.20;;;17.09;55.58;99718.84;4965084;28;122966;-73
2022/10/07 02:20:30;;;;;;;5.30;2.80;;;16.60;90.20;;;17.12;55.63;99711.75;4983824;28;119168;-74
2022/10/07 02:23:01;;;;;;;8.00;2.77;;;17.00;90.40;;;17.11;55.48;99705.34;4967833;28;118624;-73
2022/10/07 02:25:34;;;;;;;5.33;2.60;;;16.60;90.40;;;17.12;55.62;99706.19;4980205;28;124763;-72
2022/10/07 02:28:04;;;;;;;5.10;2.97;;;16.70;90.40;;;17.09;55.64;99706.84;4982038;28;124228;-73
2022/10/07 02:30:33;;;;;;;5.63;2.80;;;16.60;90.50;;;17.09;55.71;99707.66;4985280;28;120471;-73
2022/10/07 02:33:04;;;;;;;6.87;2.67;;;16.60;90.50;;;17.08;55.67;99703.22;4978702;28;118851;-73
2022/10/07 02:35:42;;;;;;;7.73;3.13;;;16.70;90.60;;;17.10;55.93;99697.31;4949756;28;123147;-73
2022/10/07 02:38:13;;;;;;;5.23;2.60;;;16.60;90.60;;;17.08;55.92;99692.06;4983537;28;124785;-74
2022/10/07 02:40:47;;;;;;;4.77;2.50;;;16.60;90.60;;;17.09;55.91;99679.75;4983030;28;119283;-74
2022/10/07 02:43:55;;;;;;;5.17;2.80;;;16.60;90.60;;;17.06;55.99;99688.78;4967896;28;119224;-76
2022/10/07 02:46:28;;;;;;;6.50;2.80;;;16.60;90.60;;;17.05;55.93;99684.34;4988648;28;124035;-73
2022/10/07 02:49:00;;;;;;;4.03;2.23;;;16.60;90.70;;;17.05;55.99;99683.53;4985710;28;124204;-72
2022/10/07 02:51:33;;;;;;;5.93;2.80;;;16.60;90.70;;;17.08;55.96;99685.66;4959184;28;117812;-73
2022/10/07 02:54:03;;;;;;;4.33;2.80;;;16.60;90.70;;;17.07;55.95;99675.66;4961632;28;118770;-74
2022/10/07 02:56:34;;;;;;;3.90;2.83;;;16.60;90.70;;;17.08;55.90;99674.47;4981118;28;123929;-72
2022/10/07 02:59:02;;;;;;;5.43;2.33;;;16.70;90.80;;;17.07;56.18;99676.47;4966923;28;124310;-73
2022/10/07 03:01:34;;;;;;;5.33;2.93;;;16.60;90.70;;;17.08;55.57;99668.91;4963428;28;119939;-73
2022/10/07 03:04:01;;;;;;;7.83;3.03;;;16.60;90.70;;;17.07;55.77;99667.28;4976902;28;119783;-73
2022/10/07 03:06:28;;;;;;;7.27;2.70;;;16.60;90.70;;;17.07;55.98;99664.47;4975905;28;124968;-73
2022/10/07 03:08:59;;;;;;;4.53;2.40;;;16.60;90.70;;;17.05;56.03;99662.00;4983834;28;123839;-73
2022/10/07 03:11:25;;;;;;;13.40;3.53;;;16.60;90.80;;;17.08;56.00;99660.53;4978262;28;119290;-73
2022/10/07 03:13:52;;;;;;;6.80;2.63;;;16.60;90.80;;;17.06;55.98;99663.66;4971358;28;118911;-73
2022/10/07 03:16:21;;;;;;;4.80;2.47;;;16.60;91.10;;;17.05;56.00;99655.63;4973441;28;124403;-73
2022/10/07 03:18:47;;;;;;;6.37;2.53;;;16.50;90.80;;;17.05;55.72;99658.41;4982096;28;124823;-73
2022/10/07 03:21:15;;;;;;;4.53;2.80;;;16.50;90.80;;;17.05;56.18;99655.63;4977458;28;119353;-74
2022/10/07 03:23:41;;;;;;;6.47;2.80;;;16.60;90.80;;;17.06;56.25;99655.28;4984225;28;118767;-73
2022/10/07 03:26:08;;;;;;;4.93;2.60;;;16.60;90.80;;;17.05;56.15;99650.84;4980076;28;124088;-73
2022/10/07 03:28:36;;;;;;;5.80;3.20;;;16.60;90.90;;;17.05;56.27;99650.84;4979983;28;123909;-72
2022/10/07 03:31:09;;;;;;;5.93;2.77;;;16.60;90.90;;;17.06;56.29;99652.50;4979628;28;119446;-74
2022/10/07 03:33:36;;;;;;;8.40;2.93;;;16.60;90.90;;;17.06;56.19;99644.13;4979988;28;118747;-73
2022/10/07 03:36:07;;;;;;;4.80;2.87;;;16.60;90.90;;;17.06;56.42;99641.31;4980795;28;123320;-73
2022/10/07 03:38:34;;;;;;;9.10;2.77;;;16.60;90.90;;;17.06;56.19;99641.31;4981596;28;123114;-75
2022/10/07 03:41:03;;;;;;;3.90;2.83;;;16.60;91.00;;;17.07;56.43;99636.56;4983033;28;119750;-72
2022/10/07 03:43:31;;;;;;;7.00;2.70;;;16.60;91.00;;;17.08;56.43;99644.59;4976166;28;119449;-73
2022/10/07 03:46:01;;;;;;;6.93;3.27;;;16.60;91.00;;;17.08;56.50;99641.78;4982751;28;124522;-73
2022/10/07 03:48:29;;;;;;;3.30;2.40;;;16.70;91.10;;;17.10;56.42;99638.69;4984640;28;123243;-74
2022/10/07 03:50:59;;;;;;;4.03;2.83;;;16.60;91.00;;;17.10;56.30;99636.69;4970826;28;122753;-73
2022/10/07 03:53:28;;;;;;;4.00;2.40;;;16.60;91.10;;;17.11;56.29;99635.53;4984694;28;119977;-73
2022/10/07 03:55:55;;;;;;;4.50;2.40;;;16.60;91.10;;;17.11;56.54;99638.31;4971213;28;123231;-75
2022/10/07 03:58:21;;;;;;;6.90;3.10;;;17.20;91.40;;;17.12;56.45;99633.56;4983128;28;124496;-73
2022/10/07 04:00:48;;;;;;;5.80;2.80;;;16.60;91.10;;;17.12;56.26;99634.41;4983258;28;119363;-76
2022/10/07 04:03:17;;;;;;;7.73;2.50;;;16.60;91.20;;;17.14;56.51;99625.66;4986616;28;119036;-74
2022/10/07 04:05:57;;;;;;;7.37;2.60;;;16.60;91.20;;;17.15;56.61;99616.97;4974573;28;125718;-73
2022/10/07 04:08:26;;;;;;;5.33;3.10;;;16.60;91.20;;;17.14;56.68;99625.66;4987353;28;123946;-73
2022/10/07 04:10:53;;;;;;;5.67;2.83;;;16.60;91.20;;;17.11;56.53;99621.56;4985774;28;119734;-73
2022/10/07 04:13:20;;;;;;;8.63;3.13;;;16.60;91.20;;;17.11;56.60;99623.53;4986328;28;118936;-73
2022/10/07 04:15:47;;;;;;;6.27;3.30;;;16.60;91.30;;;17.11;56.84;99621.56;4975982;28;124098;-73
2022/10/07 04:18:14;;;;;;;4.60;2.60;;;16.60;91.30;;;17.11;56.89;99617.97;4972194;28;124792;-75
2022/10/07 04:20:41;;;;;;;9.67;3.87;;;16.60;91.40;;;17.09;57.00;99615.53;4968673;28;119224;-73
2022/10/07 04:23:07;;;;;;;3.80;2.40;;;16.60;91.40;;;17.09;56.86;99612.72;4967393;28;118917;-73
2022/10/07 04:25:34;;;;;;;6.43;2.43;;;16.60;91.40;;;17.09;56.97;99618.31;4965155;28;124448;-72
2022/10/07 04:28:05;;;;;;;8.90;2.60;;;16.60;91.40;;;17.06;57.04;99616.19;4981266;28;123887;-75
2022/10/07 04:30:38;;;;;;;4.37;2.40;;;16.60;91.50;;;17.04;56.79;99609.31;4984106;28;119535;-74
2022/10/07 04:33:06;;;;;;;5.13;3.20;;;16.50;91.50;;;17.02;57.07;99606.84;4982540;28;119019;-73
2022/10/07 04:35:37;;;;;;;7.73;4.70;;;16.50;91.50;;;17.03;57.41;99602.88;4981276;28;127952;-72
2022/10/07 04:38:07;;;;;;;5.47;2.73;;;16.50;91.60;;;17.03;57.30;99604.88;4980822;28;123843;-74
2022/10/07 04:40:51;;;;;;;5.10;2.93;;;16.50;91.70;;;17.02;57.21;99598.47;4974626;28;120090;-73
2022/10/07 04:43:23;;;;;;;5.83;2.97;;;16.60;91.60;;;16.99;57.14;99593.56;4978064;28;119872;-72
2022/10/07 04:46:00;;;;;;;3.37;2.33;;;16.50;91.60;;;16.98;57.50;99597.50;4984758;28;124306;-72
2022/10/07 04:48:26;;;;;;;4.67;2.90;;;16.50;91.70;;;16.96;57.41;99591.44;4964599;28;122611;-72
2022/10/07 04:50:53;;;;;;;8.40;3.20;;;16.60;91.80;;;16.96;57.60;99585.88;4984832;28;119792;-72
2022/10/07 04:53:20;;;;;;;7.60;2.93;;;16.50;91.80;;;16.94;57.45;99580.59;4980831;28;118996;-72
2022/10/07 04:55:49;;;;;;;4.10;2.80;;;16.50;91.80;;;16.93;57.65;99589.31;4983065;28;124211;-73
2022/10/07 04:58:16;;;;;;;6.83;3.23;;;16.40;91.80;;;16.91;57.86;99581.28;4979836;28;124043;-73
2022/10/07 05:00:53;;;;;;;7.83;3.50;;;16.40;91.90;;;16.87;58.05;99590.66;4981233;28;119115;-72
2022/10/07 05:03:22;;;;;;;6.17;3.23;;;16.40;92.00;;;16.85;57.92;99590.19;4985557;28;118966;-73
2022/10/07 05:05:52;;;;;;;4.60;3.20;;;16.30;92.10;;;16.84;58.08;99575.38;4974052;28;124652;-73
2022/10/07 05:08:23;;;;;;;8.00;3.07;;;16.30;92.10;;;16.86;58.27;99586.22;4979753;28;124107;-72
2022/10/07 05:10:58;;;;;;;6.53;3.40;;;16.30;92.20;;;16.85;58.25;99585.41;4974989;28;119437;-77
2022/10/07 05:13:25;;;;;;;4.97;2.80;;;16.30;92.20;;;16.83;58.32;99578.53;4961321;28;119281;-74
2022/10/07 05:16:00;;;;;;;6.27;3.23;;;16.40;92.30;;;16.83;58.44;99581.31;4972091;28;124136;-73
2022/10/07 05:18:29;;;;;;;7.23;2.83;;;16.30;92.30;;;16.85;58.51;99584.59;4963504;28;122786;-73
2022/10/07 05:20:56;;;;;;;10.23;2.70;;;16.40;92.30;;;16.84;58.29;99580.97;4981851;28;118513;-73
2022/10/07 05:23:24;;;;;;;8.10;3.20;;;16.30;92.30;;;16.85;58.42;99576.22;4979601;28;119671;-74
2022/10/07 05:26:03;;;;;;;8.63;3.10;;;16.30;92.30;;;16.87;58.36;99583.13;4980784;28;124111;-73
2022/10/07 05:28:30;;;;;;;10.83;4.30;;;16.40;92.40;;;16.89;58.46;99583.56;4975734;28;123600;-74
2022/10/07 05:31:11;;;;;;;7.87;3.20;;;16.40;92.40;;;16.92;58.51;99584.88;4979482;28;119856;-74
2022/10/07 05:33:38;;;;;;;7.83;3.40;;;16.40;92.50;;;16.93;58.39;99586.53;4979281;28;119164;-74
2022/10/07 05:36:07;;;;;;;6.93;3.00;;;16.40;92.50;;;16.93;58.51;99572.56;4975170;28;124055;-74
2022/10/07 05:38:35;;;;;;;5.47;3.40;;;16.40;92.50;;;16.93;58.40;99575.38;4968675;28;123829;-73
2022/10/07 05:41:05;;;;;;;4.90;3.00;;;16.40;92.50;;;16.94;58.28;99571.41;4977465;28;119368;-73
2022/10/07 05:43:35;;;;;;;3.50;2.50;;;16.40;92.40;;;16.94;58.15;99574.19;4976787;28;119272;-73
2022/10/07 05:46:14;;;;;;;10.03;3.10;;;16.40;92.40;;;16.94;58.09;99577.81;4976912;28;124184;-73
2022/10/07 05:48:47;;;;;;;5.80;2.83;;;16.50;92.40;;;16.96;58.15;99574.69;4977441;28;123940;-73
2022/10/07 05:51:14;;;;;;;18.10;3.77;;;16.40;92.60;;;16.97;58.21;99581.91;4978368;28;118465;-74
2022/10/07 05:53:41;;;;;;;8.13;3.83;;;16.50;92.40;;;16.98;58.13;99575.19;4979413;28;119045;-72
2022/10/07 05:56:35;;;;;;;7.33;3.67;;;16.50;92.40;;;16.99;58.01;99566.44;4972222;28;124701;-73
2022/10/07 05:59:03;;;;;;;8.87;3.97;;;16.40;92.30;;;16.99;58.00;99568.44;4952918;28;123862;-73
2022/10/07 06:01:29;;;;;;;10.17;3.97;;;16.50;92.30;;;16.99;57.86;99568.44;4950824;28;119456;-71
2022/10/07 06:03:57;;;;;;;7.53;3.83;;;16.50;92.30;;;16.99;57.95;99568.44;4949716;28;119306;-71
2022/10/07 06:06:24;;;;;;;8.10;3.47;;;16.50;92.30;;;17.00;58.13;99578.44;4949529;28;124049;-72
2022/10/07 06:08:52;;;;;;;11.97;3.47;;;16.50;92.30;;;17.02;58.05;99567.75;4943757;28;122610;-69
2022/10/07 06:14:05;;;;;;;9.73;3.73;;;16.50;92.40;;;17.09;57.86;99568.06;4951262;28;119557;-71
2022/10/07 06:16:31;;;;;;;9.73;3.83;;;16.50;92.30;;;17.10;58.01;99566.06;4941738;28;123794;-73
2022/10/07 06:18:58;;;;;;;7.27;3.17;;;16.50;92.30;;;17.12;57.90;99556.22;4946506;28;123759;-73
2022/10/07 06:21:26;;;;;;;9.27;3.43;;;16.60;92.40;;;17.14;57.91;99556.69;4948164;28;119627;-73
2022/10/07 06:23:57;;;;;;;11.47;3.33;;;16.60;92.30;;;17.15;57.85;99558.31;4949602;28;97000;-73
2022/10/07 06:26:23;;;;;;;10.00;4.30;;;16.60;92.30;;;17.16;57.72;99562.75;4948056;28;124611;-72
2022/10/07 06:28:50;;;;;;;4.43;3.00;;;16.60;92.30;;;17.17;57.75;99555.19;4948102;28;124931;-73
2022/10/07 06:31:24;;;;;;;7.10;3.20;;;16.60;92.40;;;17.19;57.78;99561.25;4947384;28;119279;-71
2022/10/07 06:33:51;;;;;;;5.83;2.83;;;16.70;92.40;;;17.22;57.75;99558.63;4947257;28;119025;-71
2022/10/07 06:36:18;;;;;;;6.93;3.80;;;17.30;92.60;;;17.27;57.38;99567.94;4953540;28;123966;-71
2022/10/07 06:38:48;;;;;;;5.63;3.70;;;16.70;92.40;;;17.29;57.61;99565.63;4978576;28;123794;-72
2022/10/07 06:41:16;;;;;;;8.27;3.70;;;16.70;92.30;;;17.32;57.57;99562.97;4974518;28;119095;-72
2022/10/07 06:43:42;;;;;;;5.23;3.40;;;16.80;92.40;;;17.34;57.46;99563.44;4979560;28;118818;-72
2022/10/07 06:46:18;;;;;;;8.20;3.70;;;16.80;92.30;;;17.36;57.67;99568.72;4977782;28;123954;-72
2022/10/07 06:48:45;;;;;;;4.83;3.40;;;16.80;92.40;;;17.38;57.68;99552.41;4962052;28;122890;-72
2022/10/07 06:51:15;;;;;;;6.40;3.37;;;16.80;92.40;;;17.42;57.64;99556.19;4979250;28;119487;-73
2022/10/07 06:53:42;;;;;;;10.70;3.90;;;16.80;92.40;;;17.43;57.64;99553.03;4980405;28;119335;-83
2022/10/07 06:56:13;;;;;;;9.40;4.47;;;16.80;92.40;;;17.43;57.29;99561.41;4976049;28;124549;-71
2022/10/07 06:58:41;;;;;;;10.10;4.23;;;16.80;92.40;;;17.46;57.79;99557.13;4971678;28;124141;-70
2022/10/07 07:01:08;;;;;;;7.33;3.50;;;16.80;92.60;;;17.51;57.92;99562.50;4973119;28;119509;-71
2022/10/07 07:03:34;;;;;;;7.90;3.67;;;16.80;92.70;;;17.55;58.01;99557.88;4975246;28;118921;-71
2022/10/07 07:06:01;;;;;;;14.20;5.07;;;15.40;92.10;;;17.55;57.89;99557.06;4970030;28;124060;-71
2022/10/07 07:08:30;;;;;;;14.70;4.10;;;16.90;92.80;;;17.57;57.58;99561.16;4965407;28;123874;-72
2022/10/07 07:13:56;;;;;;;10.37;3.93;;;16.90;92.70;;;17.60;57.75;99566.06;4979764;28;120710;-71
2022/10/07 07:16:23;;;;;;;10.33;4.37;;;16.90;92.80;;;17.69;57.70;99560.41;4971344;28;123832;-71
2022/10/07 07:18:52;;;;;;;7.00;3.80;;;17.00;92.80;;;17.80;57.79;99558.84;4965870;28;123876;-70
2022/10/07 07:21:19;;;;;;;9.03;3.90;;;17.10;92.80;;;17.90;57.61;99554.84;4967065;28;119445;-70
2022/10/07 07:23:45;;;;;;;7.77;4.50;;;17.20;92.80;;;17.96;57.21;99553.44;4963997;28;119276;-72
2022/10/07 07:26:12;;;;;;;9.73;4.63;;;17.20;92.70;;;17.99;57.14;99549.97;4966345;28;124150;-70
2022/10/07 07:28:40;;;;;;;10.27;4.60;;;17.30;92.70;;;18.05;57.28;99547.75;4984169;28;124649;-72
2022/10/07 07:31:12;;;;;;;14.33;4.20;;;17.40;92.70;;;18.13;57.37;99546.84;4967248;28;119287;-72
2022/10/07 07:33:39;;;;;;;8.13;3.73;;;17.40;92.70;;;18.24;57.34;99550.03;4973101;28;118089;-71
2022/10/07 07:36:14;;;;;;;8.00;3.63;;;17.50;92.80;;;18.35;57.22;99544.81;4957497;28;124049;-71
2022/10/07 07:38:43;;;;;;;10.80;5.07;;;17.60;92.80;;;18.43;56.88;99550.34;4968085;28;123721;-71
2022/10/07 07:41:09;;;;;;;6.57;4.03;;;17.70;92.70;;;18.50;57.02;99536.56;4974097;28;118482;-70
2022/10/07 07:43:36;;;;;;;9.90;4.43;;;17.80;92.60;;;18.57;56.89;99538.00;4968797;28;119144;-73
2022/10/07 07:46:03;;;;;;;12.30;4.73;;;17.90;92.60;;;18.68;56.79;99542.78;4968834;28;123146;-72
2022/10/07 07:48:30;;;;;;;7.03;4.37;;;18.00;92.60;;;18.78;56.42;99541.56;4970972;28;124300;-72
2022/10/07 07:50:56;;;;;;;8.73;4.17;;;18.00;92.50;;;18.86;56.21;99540.63;4976296;28;118657;-71
2022/10/07 07:53:23;;;;;;;9.07;5.03;;;18.10;92.40;;;18.94;55.96;99539.69;4985878;28;119155;-70
2022/10/07 07:55:56;;;;;;;12.77;5.13;;;18.20;92.20;;;19.01;55.73;99533.50;4960689;28;125004;-69
2022/10/07 07:58:23;;;;;;;8.60;4.80;;;18.30;92.20;;;19.09;55.36;99531.72;4966909;28;123894;-71
2022/10/07 08:01:02;;;;;;;9.13;4.73;;;18.40;92.10;;;19.16;55.22;99531.97;4964907;28;120375;-70
2022/10/07 08:03:29;;;;;;;16.13;5.80;;;18.50;92.00;;;19.24;55.07;99525.41;4969847;28;120065;-70
2022/10/07 08:06:00;;;;;;;15.83;6.30;;;18.50;91.90;;;19.31;54.84;99531.22;4974111;28;126359;-71
2022/10/07 08:08:29;;;;;;;7.80;3.90;;;18.60;91.80;;;19.36;54.40;99536.59;4945422;28;124956;-71
2022/10/07 08:10:57;;;;;;;6.73;3.20;;;18.70;91.90;;;19.38;54.30;99523.03;4974046;28;119560;-68
2022/10/07 08:13:23;;;;;;;9.23;3.10;;;18.70;91.40;;;19.41;54.23;99521.53;4971749;28;119437;-70
2022/10/07 08:15:55;;;;;;;6.00;3.00;;;18.70;91.20;;;19.46;53.85;99523.28;4972810;28;124037;-70
2022/10/07 08:18:22;;;;;;;6.00;3.20;;;18.80;91.20;;;19.49;53.90;99525.38;4971600;28;123788;-70
2022/10/07 08:21:00;;;;;;;14.90;3.50;;;18.80;91.10;;;19.52;53.28;99525.47;4966543;28;119210;-70
2022/10/07 08:23:29;;;;;;;5.30;2.93;;;18.90;90.90;;;19.53;53.48;99524.31;4976155;28;119516;-79
2022/10/07 08:25:57;;;;;;;6.80;2.73;;;18.90;90.80;;;19.54;53.45;99511.91;4979360;28;124603;-69
2022/10/07 08:28:25;;;;;;;3.80;2.60;;;19.00;90.70;;;19.58;53.50;99512.81;4970338;28;124176;-69
2022/10/07 08:30:52;;;;;;;4.80;2.87;;;19.00;90.70;;;19.65;53.45;99517.84;4969193;28;119370;-73
2022/10/07 08:33:20;;;;;;;5.10;3.27;;;19.00;90.70;;;19.69;53.26;99513.16;4972329;28;119698;-69
2022/10/07 08:36:07;;;;;;;10.13;3.13;;;19.10;90.60;;;19.75;53.17;99508.16;4965873;28;123803;-70
2022/10/07 08:38:37;;;;;;;6.13;2.53;;;19.10;90.50;;;19.79;53.06;99514.66;4967350;28;123417;-69
2022/10/07 08:41:40;;;;;;;6.10;2.77;;;19.20;90.50;;;19.80;52.56;99514.31;4969432;28;119649;-69
2022/10/07 08:44:12;;;;;;;2.93;2.53;;;19.20;90.30;;;19.82;52.39;99506.34;4981088;28;118999;-70
2022/10/07 08:47:15;;;;;;;3.07;2.20;;;19.20;90.30;;;19.85;52.75;99500.03;4974910;28;123703;-69
2022/10/07 08:49:55;;;;;;;9.10;3.20;;;19.30;90.30;;;19.92;52.70;99501.41;4976111;28;124094;-69
2022/10/07 08:52:24;;;;;;;3.53;2.57;;;19.30;90.20;;;19.98;52.55;99494.34;4977150;28;120195;-70
2022/10/07 08:54:51;;;;;;;6.93;3.37;;;19.40;90.20;;;20.03;52.26;99499.69;4973894;28;119453;-69
2022/10/07 08:58:02;;;;;;;4.83;2.60;;;19.40;90.10;;;20.04;52.53;99496.56;4977206;28;123940;-69
2022/10/07 09:00:47;;;;;;;3.03;2.57;;;19.50;90.10;;;20.08;52.45;99485.41;4974891;28;123319;-69
2022/10/07 09:03:53;;;;;;;6.27;2.90;;;19.50;90.00;;;20.09;52.03;99492.66;4978668;28;119121;-69
2022/10/07 09:06:30;;;;;;;6.83;2.43;;;19.60;90.00;;;20.13;52.25;99492.75;4978567;28;119183;-75
2022/10/07 09:09:18;;;;;;;6.10;3.30;;;19.50;90.00;;;20.15;51.80;99485.63;4969261;28;123922;-69
2022/10/07 09:11:47;;;;;;;5.70;3.13;;;19.60;89.80;;;20.16;51.82;99481.63;4968822;28;124394;-68
2022/10/07 09:14:38;;;;;;;5.20;2.50;;;19.60;89.80;;;20.17;52.09;99486.06;4981941;28;119555;-69
2022/10/07 09:17:14;;;;;;;4.60;2.97;;;19.60;89.60;;;20.21;52.02;99481.38;4984528;28;119304;-69
2022/10/07 09:19:51;;;;;;;3.50;2.33;;;19.70;89.70;;;20.23;51.91;99476.22;4979836;28;124482;-68
2022/10/07 09:22:36;;;;;;;6.93;3.10;;;19.50;89.30;;;20.20;51.97;99476.09;4979752;28;123445;-68
2022/10/07 09:25:25;;;;;;;5.23;2.77;;;19.70;89.30;;;20.17;51.80;99474.81;4981589;28;119670;-68
2022/10/07 09:27:53;;;;;;;5.03;2.50;;;19.70;89.30;;;20.20;51.79;99476.94;4973628;28;118968;-68
2022/10/07 09:30:22;;;;;;;3.40;2.03;;;19.70;89.30;;;20.23;51.89;99473.41;4982320;28;124034;-68
2022/10/07 09:32:55;;;;;;;2.30;1.97;;;19.70;89.20;;;20.27;51.65;99465.06;4980504;28;123923;-68
2022/10/07 09:35:25;;;;;;;6.50;2.87;;;19.70;89.20;;;20.29;51.83;99457.91;4975313;28;118372;-70
2022/10/07 09:37:59;;;;;;;5.50;2.60;;;19.70;89.10;;;20.32;51.61;99456.38;4975665;28;118792;-69
2022/10/07 09:40:34;;;;;;;5.37;3.20;;;19.80;89.30;;;20.37;51.73;99452.50;4979115;28;123901;-69
2022/10/07 09:43:09;;;;;;;6.47;2.93;;;19.80;89.30;;;20.41;51.71;99453.38;4971832;28;123379;-69
2022/10/07 09:45:36;;;;;;;6.47;3.40;;;19.90;89.30;;;20.43;51.61;99451.03;4977002;28;120631;-68
2022/10/07 09:48:21;;;;;;;4.30;2.50;;;19.80;89.20;;;20.44;51.67;99450.66;4980292;28;120199;-69
2022/10/07 09:50:48;;;;;;;8.43;3.00;;;19.90;89.30;;;20.48;51.75;99448.78;4981182;28;123167;-68
2022/10/07 09:53:21;;;;;;;5.03;2.50;;;19.90;89.30;;;20.54;51.51;99452.16;4978767;28;124181;-68
2022/10/07 09:55:50;;;;;;;12.57;3.43;;;19.90;89.30;;;20.60;51.40;99453.50;4961645;28;118770;-69
2022/10/07 09:58:26;;;;;;;6.30;3.30;;;20.00;89.20;;;20.65;51.20;99447.59;4977270;28;118864;-69
2022/10/07 10:00:59;;;;;;;5.50;3.23;;;20.10;89.10;;;20.68;51.42;99443.25;4976684;28;123241;-69
2022/10/07 10:03:35;;;;;;;5.23;2.87;;;20.10;88.90;;;20.71;51.36;99450.94;4983776;28;124013;-69
2022/10/07 10:06:06;;;;;;;6.03;2.70;;;20.10;88.90;;;20.74;51.02;99442.63;4979161;28;119435;-69
2022/10/07 10:08:42;;;;;;;4.40;2.73;;;20.20;88.80;;;20.81;50.96;99446.78;4953551;28;118038;-70
2022/10/07 10:11:24;;;;;;;5.53;3.60;;;20.30;88.70;;;20.85;51.00;99439.25;4978210;28;124899;-69
2022/10/07 10:13:51;;;;;;;5.53;4.00;;;20.30;88.50;;;20.89;50.67;99438.13;4954205;28;123242;-70
2022/10/07 10:16:45;;;;;;;6.70;3.57;;;20.30;88.40;;;20.90;50.65;99428.56;4980600;28;119898;-69
2022/10/07 10:19:23;;;;;;;4.93;3.47;;;20.40;88.30;;;20.98;50.32;99432.31;4983334;28;118021;-68
2022/10/07 10:21:55;;;;;;;4.93;3.27;;;20.40;88.30;;;21.05;50.29;99426.06;4995179;28;123369;-69
2022/10/07 10:27:33;;;;;;;6.10;3.83;;;20.50;87.90;;;21.15;50.23;99426.28;4981213;28;119858;-67
2022/10/07 10:30:05;;;;;;;6.20;3.20;;;20.60;87.90;;;21.21;50.25;99418.38;4980456;28;118334;-69
2022/10/07 10:33:15;;;;;;;4.23;3.33;;;20.60;87.60;;;21.21;50.26;99412.75;4977991;28;124301;-69
2022/10/07 10:35:50;;;;;;;7.20;3.33;;;20.60;87.30;;;21.29;50.14;99405.28;4955369;28;123651;-69
2022/10/07 10:38:36;;;;;;;4.23;2.87;;;20.70;87.40;;;21.36;50.11;99400.63;4976912;28;120489;-68
2022/10/07 10:41:20;;;;;;;7.70;3.67;;;20.80;87.30;;;21.46;49.65;99396.44;4978972;28;119670;-68
2022/10/07 10:44:34;;;;;;;6.27;3.03;;;20.80;87.20;;;21.53;49.72;99396.56;4975638;28;124201;-68